createdAt,value
2018-05-27T00:00:08.547Z,14.50
2018-05-27T00:02:37.688Z,14.60
2018-05-27T00:05:06.147Z,14.60
2018-05-27T00:07:33.870Z,14.60
2018-05-27T00:10:04.989Z,14.60
2018-05-27T00:12:32.500Z,14.50
2018-05-27T00:15:01.666Z,14.60
2018-05-27T00:17:29.180Z,14.50
2018-05-27T00:19:56.678Z,14.60
2018-05-27T00:22:25.472Z,14.60
2018-05-27T00:24:54.965Z,14.70
2018-05-27T00:27:24.121Z,14.60
2018-05-27T00:29:51.604Z,14.60
2018-05-27T00:32:19.161Z,14.60
2018-05-27T00:34:46.670Z,14.50
2018-05-27T00:37:14.138Z,14.50
2018-05-27T00:39:42.409Z,14.50
2018-05-27T00:42:10.880Z,14.60
2018-05-27T00:44:38.341Z,14.60
2018-05-27T00:47:07.757Z,14.70
2018-05-27T00:49:36.195Z,14.80
2018-05-27T00:52:03.704Z,14.70
2018-05-27T00:54:31.957Z,14.80
2018-05-27T00:57:01.123Z,14.80
2018-05-27T00:59:28.599Z,14.80
2018-05-27T01:01:56.153Z,14.80
2018-05-27T01:04:23.626Z,14.80
2018-05-27T01:06:51.109Z,14.80
2018-05-27T01:09:19.534Z,14.90
2018-05-27T01:11:47.933Z,15.00
2018-05-27T01:14:18.848Z,15.00
2018-05-27T01:16:46.357Z,15.00
2018-05-27T01:19:14.932Z,14.70
2018-05-27T01:21:42.446Z,14.70
2018-05-27T01:24:09.947Z,14.40
2018-05-27T01:26:41.893Z,14.30
2018-05-27T01:29:09.352Z,14.20
2018-05-27T01:31:37.777Z,14.10
2018-05-27T01:34:05.265Z,14.00
2018-05-27T01:36:32.732Z,14.00
2018-05-27T01:39:00.223Z,14.10
2018-05-27T01:41:28.511Z,14.00
2018-05-27T01:43:56.751Z,13.80
2018-05-27T01:46:24.231Z,13.60
2018-05-27T01:48:52.710Z,13.70
2018-05-27T01:51:20.177Z,13.80
2018-05-27T01:53:47.672Z,13.80
2018-05-27T01:56:15.158Z,13.80
2018-05-27T01:58:43.656Z,13.70
2018-05-27T02:01:11.167Z,13.70
2018-05-27T02:03:38.641Z,13.70
2018-05-27T02:06:06.111Z,13.90
2018-05-27T02:08:40.616Z,14.00
2018-05-27T02:11:08.248Z,13.90
2018-05-27T02:13:38.420Z,13.90
2018-05-27T02:16:06.656Z,13.80
2018-05-27T02:18:34.914Z,13.70
2018-05-27T02:21:03.180Z,13.70
2018-05-27T02:23:30.637Z,13.70
2018-05-27T02:25:58.100Z,13.50
2018-05-27T02:28:26.523Z,13.60
2018-05-27T02:30:54.005Z,13.70
2018-05-27T02:33:21.468Z,13.70
2018-05-27T02:35:49.982Z,13.60
2018-05-27T02:38:23.697Z,13.60
2018-05-27T02:40:52.229Z,13.60
2018-05-27T02:43:19.720Z,13.60
2018-05-27T02:45:47.196Z,13.60
2018-05-27T02:48:15.432Z,13.80
2018-05-27T02:50:43.826Z,13.80
2018-05-27T02:53:11.328Z,13.90
2018-05-27T02:55:38.802Z,13.90
2018-05-27T02:58:08.233Z,14.00
2018-05-27T03:00:36.622Z,14.00
2018-05-27T03:03:05.000Z,14.00
2018-05-27T03:05:33.472Z,13.90
2018-05-27T03:08:00.963Z,13.80
2018-05-27T03:10:28.417Z,13.90
2018-05-27T03:12:58.600Z,13.80
2018-05-27T03:15:26.093Z,13.70
2018-05-27T03:17:55.269Z,14.00
2018-05-27T03:20:22.952Z,14.00
2018-05-27T03:22:50.435Z,14.10
2018-05-27T03:25:19.592Z,14.00
2018-05-27T03:27:47.076Z,14.00
2018-05-27T03:30:15.330Z,14.30
2018-05-27T03:32:42.960Z,14.20
2018-05-27T03:35:10.420Z,14.40
2018-05-27T03:37:37.955Z,14.40
2018-05-27T03:40:07.215Z,14.50
2018-05-27T03:42:34.676Z,14.50
2018-05-27T03:45:03.067Z,14.60
2018-05-27T03:47:30.529Z,14.50
2018-05-27T03:49:59.781Z,14.60
2018-05-27T03:52:27.360Z,14.60
2018-05-27T03:54:55.751Z,14.50
2018-05-27T03:57:25.569Z,14.50
2018-05-27T03:59:53.966Z,14.40
2018-05-27T04:02:23.127Z,14.20
2018-05-27T04:05:02.416Z,14.20
2018-05-27T04:07:41.757Z,14.20
2018-05-27T04:10:10.183Z,14.20
2018-05-27T04:12:37.651Z,14.40
2018-05-27T04:15:05.863Z,14.30
2018-05-27T04:17:33.356Z,14.30
2018-05-27T04:20:00.835Z,14.30
2018-05-27T04:22:28.345Z,14.20
2018-05-27T04:24:55.836Z,14.20
2018-05-27T04:27:27.600Z,14.10
2018-05-27T04:29:55.055Z,14.20
2018-05-27T04:32:22.527Z,14.40
2018-05-27T04:34:50.000Z,14.40
2018-05-27T04:37:17.472Z,14.60
2018-05-27T04:39:49.298Z,14.60
2018-05-27T04:42:18.809Z,14.70
2018-05-27T04:44:46.302Z,14.80
2018-05-27T04:47:14.545Z,14.90
2018-05-27T04:49:43.501Z,14.90
2018-05-27T04:52:10.977Z,14.90
2018-05-27T04:54:38.458Z,14.70
2018-05-27T04:57:05.924Z,14.80
2018-05-27T04:59:33.385Z,14.90
2018-05-27T05:02:02.162Z,15.00
2018-05-27T05:04:30.702Z,15.10
2018-05-27T05:07:00.113Z,15.20
2018-05-27T05:09:28.660Z,15.20
2018-05-27T05:11:56.083Z,15.20
2018-05-27T05:14:24.491Z,15.30
2018-05-27T05:16:51.948Z,15.10
2018-05-27T05:19:20.185Z,14.70
2018-05-27T05:22:02.056Z,14.70
2018-05-27T05:24:30.554Z,14.70
2018-05-27T05:26:58.040Z,14.80
2018-05-27T05:29:26.490Z,14.90
2018-05-27T05:31:53.949Z,14.80
2018-05-27T05:34:21.415Z,14.80
2018-05-27T05:36:49.899Z,15.00
2018-05-27T05:39:18.359Z,14.90
2018-05-27T05:41:45.998Z,14.90
2018-05-27T05:44:14.214Z,15.10
2018-05-27T05:46:42.685Z,15.10
2018-05-27T05:49:10.131Z,15.20
2018-05-27T05:51:37.607Z,15.30
2018-05-27T05:54:05.083Z,15.20
2018-05-27T05:56:32.541Z,15.40
2018-05-27T05:59:00.795Z,15.60
2018-05-27T06:01:29.017Z,15.80
2018-05-27T06:03:57.529Z,15.60
2018-05-27T06:06:25.000Z,15.60
2018-05-27T06:08:54.339Z,15.50
2018-05-27T06:11:22.277Z,15.70
2018-05-27T06:13:49.737Z,15.50
2018-05-27T06:16:17.222Z,15.30
2018-05-27T06:18:45.061Z,15.20
2018-05-27T06:21:12.534Z,15.30
2018-05-27T06:23:40.110Z,15.40
2018-05-27T06:26:11.424Z,15.40
2018-05-27T06:28:38.899Z,15.40
2018-05-27T06:31:06.477Z,15.40
2018-05-27T06:33:33.935Z,15.50
2018-05-27T06:36:01.399Z,15.80
2018-05-27T06:38:28.866Z,16.10
2018-05-27T06:41:00.055Z,16.20
2018-05-27T06:43:27.535Z,16.20
2018-05-27T06:45:55.008Z,16.30
2018-05-27T06:48:25.610Z,16.20
2018-05-27T06:51:05.659Z,16.00
2018-05-27T06:53:33.303Z,16.20
2018-05-27T06:56:00.756Z,15.90
2018-05-27T06:58:31.384Z,16.10
2018-05-27T07:01:03.271Z,16.10
2018-05-27T07:03:30.736Z,16.10
2018-05-27T07:05:58.207Z,16.30
2018-05-27T07:08:25.668Z,16.50
2018-05-27T07:10:54.127Z,16.70
2018-05-27T07:13:21.605Z,16.80
2018-05-27T07:15:49.051Z,16.20
2018-05-27T07:18:17.402Z,16.10
2018-05-27T07:20:44.908Z,16.00
2018-05-27T07:23:13.350Z,15.80
2018-05-27T07:25:40.822Z,15.90
2018-05-27T07:28:09.329Z,15.90
2018-05-27T07:30:36.917Z,16.10
2018-05-27T07:33:04.430Z,16.20
2018-05-27T07:35:31.917Z,16.40
2018-05-27T07:38:00.424Z,16.40
2018-05-27T07:40:28.749Z,16.40
2018-05-27T07:42:59.482Z,16.40
2018-05-27T07:45:27.005Z,16.50
2018-05-27T07:48:01.723Z,17.00
2018-05-27T07:50:29.958Z,17.30
2018-05-27T07:52:58.412Z,17.30
2018-05-27T07:55:25.874Z,17.50
2018-05-27T07:57:56.790Z,17.20
2018-05-27T08:00:24.479Z,17.20
2018-05-27T08:02:51.937Z,17.70
2018-05-27T08:05:19.521Z,17.60
2018-05-27T08:07:46.980Z,17.20
2018-05-27T08:10:15.429Z,17.30
2018-05-27T08:12:43.224Z,17.10
2018-05-27T08:15:10.708Z,17.20
2018-05-27T08:17:38.211Z,17.60
2018-05-27T08:20:05.751Z,17.60
2018-05-27T08:22:33.164Z,17.90
2018-05-27T08:25:00.619Z,17.70
2018-05-27T08:27:28.085Z,18.10
2018-05-27T08:29:55.591Z,18.20
2018-05-27T08:32:23.060Z,17.90
2018-05-27T08:34:53.968Z,17.70
2018-05-27T08:37:22.215Z,18.90
2018-05-27T08:39:49.683Z,18.90
2018-05-27T08:42:19.136Z,19.50
2018-05-27T08:44:46.599Z,19.40
2018-05-27T08:47:14.065Z,18.80
2018-05-27T08:49:42.547Z,18.60
2018-05-27T08:52:10.021Z,19.10
2018-05-27T08:54:37.482Z,19.60
2018-05-27T08:57:04.956Z,19.40
2018-05-27T08:59:32.403Z,19.60
2018-05-27T09:01:59.873Z,19.60
2018-05-27T09:04:27.323Z,20.60
2018-05-27T09:06:55.675Z,21.50
2018-05-27T09:09:23.157Z,21.30
2018-05-27T09:11:50.603Z,21.20
2018-05-27T09:14:18.073Z,20.70
2018-05-27T09:16:45.537Z,21.60
2018-05-27T09:19:13.904Z,22.50
2018-05-27T09:21:41.360Z,22.50
2018-05-27T09:24:08.825Z,22.40
2018-05-27T09:26:36.291Z,23.20
2018-05-27T09:29:03.752Z,22.70
2018-05-27T09:31:33.128Z,23.10
2018-05-27T09:34:02.538Z,24.20
2018-05-27T09:36:30.132Z,25.30
2018-05-27T09:39:00.637Z,25.40
2018-05-27T09:41:28.220Z,25.30
2018-05-27T09:43:56.491Z,25.10
2018-05-27T09:46:25.833Z,25.40
2018-05-27T09:48:54.157Z,25.40
2018-05-27T09:51:22.421Z,25.70
2018-05-27T09:53:50.619Z,27.00
2018-05-27T09:56:22.092Z,28.20
2018-05-27T09:58:50.319Z,28.10
2018-05-27T10:01:17.801Z,28.10
2018-05-27T10:03:45.345Z,28.40
2018-05-27T10:06:19.782Z,27.50
2018-05-27T10:08:48.026Z,27.00
2018-05-27T10:11:15.519Z,27.00
2018-05-27T10:13:43.774Z,28.10
2018-05-27T10:16:11.467Z,28.10
2018-05-27T10:18:39.861Z,28.50
2018-05-27T10:21:07.377Z,28.50
2018-05-27T10:23:34.834Z,29.10
2018-05-27T10:26:02.372Z,30.10
2018-05-27T10:28:29.782Z,27.10
2018-05-27T10:30:58.309Z,26.50
2018-05-27T10:33:25.800Z,26.20
2018-05-27T10:35:54.205Z,27.80
2018-05-27T10:38:22.536Z,29.60
2018-05-27T10:40:49.997Z,29.60
2018-05-27T10:43:17.452Z,30.50
2018-05-27T10:45:44.958Z,28.20
2018-05-27T10:48:12.420Z,27.70
2018-05-27T10:50:39.876Z,27.50
2018-05-27T10:53:07.382Z,27.50
2018-05-27T10:55:35.921Z,28.00
2018-05-27T10:58:03.351Z,28.00
2018-05-27T11:00:30.817Z,28.90
2018-05-27T11:02:58.628Z,30.60
2018-05-27T11:05:26.072Z,31.30
2018-05-27T11:07:56.878Z,30.90
2018-05-27T11:10:28.599Z,31.10
2018-05-27T11:12:56.074Z,32.30
2018-05-27T11:15:23.525Z,31.80
2018-05-27T11:17:50.993Z,28.40
2018-05-27T11:20:33.590Z,28.90
2018-05-27T11:23:02.092Z,29.70
2018-05-27T11:25:30.696Z,29.70
2018-05-27T11:27:58.961Z,30.70
2018-05-27T11:30:27.210Z,30.40
2018-05-27T11:32:55.678Z,30.40
2018-05-27T11:35:23.147Z,31.10
2018-05-27T11:37:50.621Z,30.20
2018-05-27T11:40:19.043Z,30.20
2018-05-27T11:42:47.484Z,30.60
2018-05-27T11:45:15.930Z,31.30
2018-05-27T11:47:44.324Z,32.10
2018-05-27T11:50:24.998Z,31.10
2018-05-27T11:52:52.548Z,29.70
2018-05-27T11:55:20.993Z,30.40
2018-05-27T11:57:48.516Z,27.50
2018-05-27T12:00:15.982Z,27.00
2018-05-27T12:02:45.458Z,27.00
2018-05-27T12:05:12.944Z,27.40
2018-05-27T12:07:40.407Z,25.70
2018-05-27T12:10:07.888Z,26.00
2018-05-27T12:12:35.377Z,27.30
2018-05-27T12:15:03.774Z,28.60
2018-05-27T12:17:32.249Z,27.50
2018-05-27T12:19:59.711Z,27.30
2018-05-27T12:22:28.175Z,28.40
2018-05-27T12:24:57.751Z,28.30
2018-05-27T12:27:26.156Z,27.70
2018-05-27T12:29:53.718Z,29.20
2018-05-27T12:32:22.460Z,29.30
2018-05-27T12:34:53.355Z,30.50
2018-05-27T12:37:20.867Z,30.50
2018-05-27T12:39:48.383Z,29.40
2018-05-27T12:42:15.871Z,27.70
2018-05-27T12:44:44.168Z,27.50
2018-05-27T12:47:12.398Z,26.10
2018-05-27T12:49:39.915Z,26.10
2018-05-27T12:52:11.155Z,26.70
2018-05-27T12:54:41.852Z,27.40
2018-05-27T12:57:10.096Z,27.40
2018-05-27T12:59:37.591Z,27.40
2018-05-27T13:02:08.125Z,27.00
2018-05-27T13:04:36.379Z,27.00
2018-05-27T13:07:03.846Z,27.00
2018-05-27T13:09:32.726Z,27.20
2018-05-27T13:12:00.182Z,25.80
2018-05-27T13:14:27.647Z,25.20
2018-05-27T13:16:55.260Z,25.20
2018-05-27T13:19:22.640Z,25.60
2018-05-27T13:21:52.109Z,25.40
2018-05-27T13:24:22.251Z,25.90
2018-05-27T13:26:53.443Z,25.90
2018-05-27T13:29:21.844Z,25.50
2018-05-27T13:31:50.075Z,24.10
2018-05-27T13:34:25.275Z,24.10
2018-05-27T13:36:57.259Z,23.40
2018-05-27T13:39:25.506Z,23.50
2018-05-27T13:41:54.719Z,24.00
2018-05-27T13:44:22.208Z,23.90
2018-05-27T13:46:56.087Z,24.00
2018-05-27T13:49:23.573Z,23.80
2018-05-27T13:51:51.016Z,24.40
2018-05-27T13:54:18.500Z,24.30
2018-05-27T13:56:46.061Z,23.90
2018-05-27T13:59:16.915Z,23.90
2018-05-27T14:01:45.157Z,24.20
2018-05-27T14:04:13.699Z,24.20
2018-05-27T14:06:41.935Z,23.90
2018-05-27T14:09:09.441Z,23.90
2018-05-27T14:11:36.909Z,24.10
2018-05-27T14:14:06.363Z,25.00
2018-05-27T14:16:34.549Z,25.00
2018-05-27T14:19:02.060Z,25.00
2018-05-27T14:21:29.603Z,24.40
2018-05-27T14:23:58.007Z,24.10
2018-05-27T14:26:25.513Z,23.60
2018-05-27T14:28:55.748Z,23.50
2018-05-27T14:31:24.009Z,24.10
2018-05-27T14:33:53.468Z,24.10
2018-05-27T14:36:25.287Z,24.10
2018-05-27T14:38:53.538Z,23.60
2018-05-27T14:41:25.441Z,23.60
2018-05-27T14:43:53.892Z,23.00
2018-05-27T14:46:21.361Z,22.90
2018-05-27T14:48:52.637Z,23.70
2018-05-27T14:51:32.385Z,23.70
2018-05-27T14:54:08.796Z,24.20
2018-05-27T14:56:39.593Z,23.10
2018-05-27T14:59:09.437Z,22.80
2018-05-27T15:01:39.814Z,23.00
2018-05-27T15:04:24.962Z,22.90
2018-05-27T15:06:59.410Z,22.90
2018-05-27T15:09:32.625Z,22.80
2018-05-27T15:12:06.176Z,22.60
2018-05-27T15:14:38.034Z,22.80
2018-05-27T15:17:12.203Z,23.10
2018-05-27T15:19:44.269Z,23.50
2018-05-27T15:22:16.540Z,23.50
2018-05-27T15:24:50.495Z,23.80
2018-05-27T15:27:21.285Z,24.30
2018-05-27T15:29:53.763Z,23.20
2018-05-27T15:32:28.288Z,23.40
2018-05-27T15:35:02.197Z,23.70
2018-05-27T15:37:38.377Z,23.80
2018-05-27T15:40:12.211Z,23.60
2018-05-27T15:42:44.428Z,23.90
2018-05-27T15:45:16.619Z,23.90
2018-05-27T15:47:46.544Z,24.10
2018-05-27T15:50:17.074Z,23.50
2018-05-27T15:52:52.897Z,23.60
2018-05-27T15:55:29.000Z,23.30
2018-05-27T15:58:00.368Z,23.10
2018-05-27T16:00:36.068Z,23.00
2018-05-27T16:03:06.644Z,23.30
2018-05-27T16:05:36.765Z,23.30
2018-05-27T16:08:11.365Z,23.30
2018-05-27T16:10:45.468Z,23.20
2018-05-27T16:13:16.445Z,22.90
2018-05-27T16:15:47.318Z,22.60
2018-05-27T16:20:57.662Z,22.60
2018-05-27T16:23:27.957Z,22.30
2018-05-27T16:25:59.495Z,22.10
2018-05-27T16:28:32.278Z,22.00
2018-05-27T16:31:04.289Z,22.30
2018-05-27T16:33:37.951Z,22.60
2018-05-27T16:36:12.368Z,22.80
2018-05-27T16:38:44.817Z,22.80
2018-05-27T16:43:51.071Z,22.00
2018-05-27T16:46:22.976Z,22.00
2018-05-27T16:48:53.388Z,22.00
2018-05-27T16:51:30.192Z,21.90
2018-05-27T16:54:01.659Z,22.10
2018-05-27T16:56:36.220Z,22.20
2018-05-27T16:59:09.333Z,21.90
2018-05-27T17:01:39.686Z,21.80
2018-05-27T17:04:12.642Z,21.90
2018-05-27T17:06:46.085Z,21.70
2018-05-27T17:11:59.854Z,21.50
2018-05-27T17:14:33.297Z,21.50
2018-05-27T17:17:04.544Z,21.50
2018-05-27T17:19:37.257Z,21.40
2018-05-27T17:22:15.332Z,21.10
2018-05-27T17:24:46.100Z,20.90
2018-05-27T17:27:25.094Z,21.10
2018-05-27T17:29:58.323Z,21.10
2018-05-27T17:32:29.493Z,20.80
2018-05-27T17:35:02.302Z,20.80
2018-05-27T17:37:33.854Z,20.70
2018-05-27T17:40:09.867Z,20.80
2018-05-27T17:42:44.091Z,20.50
2018-05-27T17:45:17.643Z,20.50
2018-05-27T17:47:48.063Z,20.50
2018-05-27T17:50:19.116Z,20.40
2018-05-27T17:53:01.230Z,20.40
2018-05-27T17:55:35.316Z,20.40
2018-05-27T17:58:06.155Z,20.30
2018-05-27T18:00:39.356Z,20.00
2018-05-27T18:03:11.772Z,20.00
2018-05-27T18:05:51.773Z,20.00
2018-05-27T18:08:24.764Z,20.00
2018-05-27T18:10:56.359Z,20.00
2018-05-27T18:13:30.177Z,19.90
2018-05-27T18:16:14.847Z,20.00
2018-05-27T18:21:36.996Z,19.50
2018-05-27T18:27:08.152Z,19.50
2018-05-27T18:29:35.938Z,19.50
2018-05-27T18:32:04.317Z,19.60
2018-05-27T18:34:31.748Z,19.40
2018-05-27T18:36:59.868Z,19.40
2018-05-27T18:39:27.298Z,19.30
2018-05-27T18:41:55.018Z,19.50
2018-05-27T18:44:23.078Z,19.20
2018-05-27T18:46:50.503Z,19.20
2018-05-27T18:49:17.965Z,19.30
2018-05-27T18:51:45.426Z,19.10
2018-05-27T18:54:12.851Z,19.30
2018-05-27T18:56:40.309Z,19.40
2018-05-27T18:59:07.835Z,19.40
2018-05-27T19:01:35.243Z,19.00
2018-05-27T19:04:02.678Z,19.10
2018-05-27T19:06:30.862Z,19.20
2018-05-27T19:08:58.363Z,19.20
2018-05-27T19:11:26.820Z,19.10
2018-05-27T19:13:54.517Z,19.00
2018-05-27T19:16:23.558Z,18.70
2018-05-27T19:18:50.985Z,18.70
2018-05-27T19:21:19.178Z,18.10
2018-05-27T19:23:49.129Z,18.10
2018-05-27T19:26:16.546Z,18.10
2018-05-27T19:28:44.754Z,17.90
2018-05-27T19:31:12.955Z,17.90
2018-05-27T19:33:40.758Z,18.00
2018-05-27T19:36:09.599Z,18.30
2018-05-27T19:38:37.050Z,18.30
2018-05-27T19:41:05.269Z,17.90
2018-05-27T19:43:32.786Z,17.60
2018-05-27T19:46:00.727Z,17.30
2018-05-27T19:48:37.862Z,17.30
2018-05-27T19:51:05.741Z,17.20
2018-05-27T19:53:33.158Z,17.20
2018-05-27T19:56:01.274Z,17.30
2018-05-27T19:58:28.894Z,17.30
2018-05-27T20:00:56.344Z,17.40
2018-05-27T20:03:23.851Z,17.30
2018-05-27T20:05:51.307Z,16.90
2018-05-27T20:08:18.763Z,16.90
2018-05-27T20:10:47.702Z,16.70
2018-05-27T20:13:15.229Z,16.70
2018-05-27T20:15:43.890Z,16.60
2018-05-27T20:18:11.326Z,16.60
2018-05-27T20:20:38.858Z,16.70
2018-05-27T20:23:06.752Z,16.80
2018-05-27T20:25:34.206Z,16.80
2018-05-27T20:28:02.714Z,16.80
2018-05-27T20:30:30.686Z,16.90
2018-05-27T20:32:58.511Z,17.00
2018-05-27T20:35:25.936Z,17.00
2018-05-27T20:37:54.150Z,16.90
2018-05-27T20:40:22.333Z,17.00
2018-05-27T20:42:50.266Z,17.00
2018-05-27T20:45:18.663Z,16.80
2018-05-27T20:47:46.762Z,16.80
2018-05-27T20:50:14.270Z,16.70
2018-05-27T20:52:42.757Z,16.80
2018-05-27T20:55:10.951Z,16.80
2018-05-27T20:57:38.374Z,16.70
2018-05-27T21:00:05.801Z,16.90
2018-05-27T21:02:34.782Z,17.00
2018-05-27T21:05:02.495Z,16.70
2018-05-27T21:07:30.815Z,16.50
2018-05-27T21:09:58.387Z,16.50
2018-05-27T21:15:04.587Z,16.70
2018-05-27T21:17:32.279Z,16.40
2018-05-27T21:20:00.834Z,16.30
2018-05-27T21:22:28.299Z,16.30
2018-05-27T21:24:55.710Z,16.30
2018-05-27T21:27:23.162Z,16.20
2018-05-27T21:29:50.623Z,16.00
2018-05-27T21:32:18.692Z,16.00
2018-05-27T21:34:46.478Z,15.90
2018-05-27T21:37:15.198Z,15.90
2018-05-27T21:39:42.669Z,15.80
2018-05-27T21:42:11.610Z,15.90
2018-05-27T21:44:39.457Z,15.70
2018-05-27T21:47:07.591Z,15.80
2018-05-27T21:49:35.330Z,15.80
2018-05-27T21:52:03.727Z,15.80
2018-05-27T21:54:33.880Z,15.70
2018-05-27T21:57:03.057Z,15.70
2018-05-27T21:59:30.671Z,15.60
2018-05-27T22:01:59.485Z,15.70
2018-05-27T22:04:26.909Z,15.90
2018-05-27T22:06:54.353Z,15.90
2018-05-27T22:09:22.558Z,15.90
2018-05-27T22:11:50.998Z,15.90
2018-05-27T22:14:19.330Z,15.80
2018-05-27T22:16:46.782Z,15.80
2018-05-27T22:19:14.870Z,15.80
2018-05-27T22:21:42.309Z,15.90
2018-05-27T22:24:10.254Z,15.80
2018-05-27T22:26:37.691Z,15.60
2018-05-27T22:29:06.233Z,15.50
2018-05-27T22:31:34.039Z,15.50
2018-05-27T22:34:02.763Z,15.50
2018-05-27T22:36:30.458Z,15.40
2018-05-27T22:38:58.129Z,15.40
2018-05-27T22:41:26.347Z,15.50
2018-05-27T22:43:53.872Z,15.50
2018-05-27T22:46:22.618Z,15.70
2018-05-27T22:48:50.275Z,15.70
2018-05-27T22:51:17.704Z,15.70
2018-05-27T22:53:45.162Z,15.70
2018-05-27T22:56:12.678Z,15.80
2018-05-27T22:58:40.750Z,15.90
2018-05-27T23:01:08.263Z,15.90
2018-05-27T23:03:35.702Z,15.90
2018-05-27T23:06:04.019Z,15.90
2018-05-27T23:08:31.513Z,15.80
2018-05-27T23:11:00.001Z,15.80
2018-05-27T23:13:28.227Z,15.80
2018-05-27T23:15:55.650Z,15.90
2018-05-27T23:18:23.850Z,15.90
2018-05-27T23:20:51.670Z,15.90
2018-05-27T23:23:19.365Z,15.90
2018-05-27T23:25:46.797Z,15.90
2018-05-27T23:28:14.358Z,16.00
2018-05-27T23:30:44.387Z,16.10
2018-05-27T23:33:12.775Z,16.10
2018-05-27T23:35:40.961Z,16.10
2018-05-27T23:38:08.799Z,16.10
2018-05-27T23:40:36.218Z,16.20
2018-05-27T23:43:04.203Z,16.20
2018-05-27T23:45:32.930Z,16.30
2018-05-27T23:48:01.125Z,16.20
2018-05-27T23:50:28.571Z,16.20
2018-05-27T23:52:56.022Z,16.20
2018-05-27T23:55:24.721Z,16.20
2018-05-27T23:57:52.236Z,16.20
